createdAt,value
2022-11-28T00:00:56.317Z,1.93
2022-11-28T00:01:56.443Z,2.01
2022-11-28T00:02:56.687Z,1.87
2022-11-28T00:03:56.530Z,1.89
2022-11-28T00:04:56.531Z,1.89
2022-11-28T00:05:56.785Z,1.98
2022-11-28T00:06:57.234Z,1.97
2022-11-28T00:07:56.428Z,1.93
2022-11-28T00:08:56.169Z,1.94
2022-11-28T00:09:56.153Z,1.98
2022-11-28T00:10:55.885Z,1.94
2022-11-28T00:11:56.106Z,2.04
2022-11-28T00:12:56.088Z,2.02
2022-11-28T00:13:56.100Z,2.01
2022-11-28T00:14:56.056Z,1.94
2022-11-28T00:15:56.051Z,1.93
2022-11-28T00:16:56.014Z,2.04
2022-11-28T00:17:56.418Z,1.93
2022-11-28T00:18:55.999Z,2.04
2022-11-28T00:19:55.704Z,2.11
2022-11-28T00:20:56.483Z,2.08
2022-11-28T00:21:56.331Z,2.12
2022-11-28T00:22:56.969Z,2.08
2022-11-28T00:23:56.687Z,2.05
2022-11-28T00:24:56.414Z,2.09
2022-11-28T00:25:56.134Z,2.04
2022-11-28T00:26:56.371Z,2.09
2022-11-28T00:27:56.364Z,2.08
2022-11-28T00:28:56.334Z,2.06
2022-11-28T00:29:56.571Z,2.09
2022-11-28T00:30:56.292Z,2.09
2022-11-28T00:31:56.775Z,2.09
2022-11-28T00:32:56.262Z,2.13
2022-11-28T00:33:56.246Z,2.15
2022-11-28T00:34:56.324Z,2.09
2022-11-28T00:35:56.200Z,2.13
2022-11-28T00:36:56.186Z,2.13
2022-11-28T00:37:56.029Z,2.13
2022-11-28T00:38:56.633Z,2.2
2022-11-28T00:39:56.383Z,2.13
2022-11-28T00:40:56.364Z,2.12
2022-11-28T00:41:56.361Z,2.11
2022-11-28T00:42:56.071Z,2.16
2022-11-28T00:43:56.314Z,2.06
2022-11-28T00:44:55.878Z,2.06
2022-11-28T00:45:56.248Z,2.12
2022-11-28T00:46:56.247Z,2.09
2022-11-28T00:47:55.724Z,2.12
2022-11-28T00:48:56.219Z,2.12
2022-11-28T00:49:55.942Z,2.08
2022-11-28T00:50:55.914Z,2.08
2022-11-28T00:51:56.152Z,2.01
2022-11-28T00:52:55.869Z,1.94
2022-11-28T00:53:55.985Z,1.98
2022-11-28T00:54:56.333Z,1.93
2022-11-28T00:55:56.075Z,2.06
2022-11-28T00:56:55.804Z,2.01
2022-11-28T00:57:56.039Z,1.97
2022-11-28T00:58:55.771Z,2.01
2022-11-28T00:59:55.752Z,2.04
2022-11-28T01:00:56.282Z,1.98
2022-11-28T01:01:55.627Z,1.98
2022-11-28T01:02:55.779Z,1.98
2022-11-28T01:03:55.936Z,1.97
2022-11-28T01:04:55.400Z,1.94
2022-11-28T01:05:55.640Z,1.94
2022-11-28T01:06:55.877Z,1.84
2022-11-28T01:07:55.799Z,1.89
2022-11-28T01:08:55.830Z,1.84
2022-11-28T01:09:55.939Z,1.86
2022-11-28T01:10:56.041Z,1.98
2022-11-28T01:11:55.779Z,1.84
2022-11-28T01:12:55.754Z,1.94
2022-11-28T01:13:55.742Z,1.97
2022-11-28T01:14:55.226Z,1.93
2022-11-28T01:15:55.982Z,1.92
2022-11-28T01:16:55.691Z,1.98
2022-11-28T01:17:55.405Z,2.01
2022-11-28T01:18:55.393Z,2.11
2022-11-28T01:19:55.274Z,1.97
2022-11-28T01:20:55.367Z,2.11
2022-11-28T01:21:55.597Z,2.08
2022-11-28T01:22:55.314Z,2.12
2022-11-28T01:23:55.296Z,2.18
2022-11-28T01:24:55.288Z,2.15
2022-11-28T01:25:55.380Z,2.15
2022-11-28T01:26:55.736Z,2.18
2022-11-28T01:27:55.237Z,2.15
2022-11-28T01:28:55.540Z,2.2
2022-11-28T01:29:55.189Z,2.27
2022-11-28T01:30:55.161Z,2.33
2022-11-28T01:31:55.423Z,2.31
2022-11-28T01:32:55.390Z,2.33
2022-11-28T01:34:55.347Z,2.33
2022-11-28T01:35:55.081Z,2.44
2022-11-28T01:36:55.307Z,2.34
2022-11-28T01:37:55.306Z,2.45
2022-11-28T01:38:55.279Z,2.47
2022-11-28T01:39:54.738Z,2.38
2022-11-28T01:40:54.980Z,2.42
2022-11-28T01:41:55.335Z,2.36
2022-11-28T01:42:55.431Z,2.45
2022-11-28T01:43:55.184Z,2.45
2022-11-28T01:44:55.160Z,2.44
2022-11-28T01:45:55.139Z,2.47
2022-11-28T01:46:55.438Z,2.49
2022-11-28T01:47:55.110Z,2.51
2022-11-28T01:48:54.838Z,2.51
2022-11-28T01:49:55.061Z,2.47
2022-11-28T01:50:54.534Z,2.55
2022-11-28T01:51:55.040Z,2.54
2022-11-28T01:52:54.755Z,2.58
2022-11-28T01:53:54.740Z,2.6
2022-11-28T01:54:54.715Z,2.55
2022-11-28T01:55:54.965Z,2.55
2022-11-28T01:56:54.687Z,2.55
2022-11-28T01:58:00.852Z,2.54
2022-11-28T01:58:55.264Z,2.52
2022-11-28T01:59:54.631Z,2.54
2022-11-28T02:00:54.788Z,2.58
2022-11-28T02:01:54.735Z,2.59
2022-11-28T02:02:54.821Z,2.69
2022-11-28T02:03:54.723Z,2.67
2022-11-28T02:04:54.535Z,2.62
2022-11-28T02:05:54.916Z,2.62
2022-11-28T02:06:54.694Z,2.7
2022-11-28T02:07:55.033Z,2.62
2022-11-28T02:08:54.741Z,2.67
2022-11-28T02:09:54.445Z,2.72
2022-11-28T02:10:54.669Z,2.73
2022-11-28T02:11:54.408Z,2.72
2022-11-28T02:12:54.392Z,2.73
2022-11-28T02:13:54.628Z,2.8
2022-11-28T02:14:54.988Z,2.8
2022-11-28T02:15:54.297Z,2.76
2022-11-28T02:16:54.314Z,2.73
2022-11-28T02:17:54.300Z,2.81
2022-11-28T02:18:55.590Z,2.77
2022-11-28T02:19:54.256Z,2.8
2022-11-28T02:20:54.240Z,2.83
2022-11-28T02:21:54.226Z,2.81
2022-11-28T02:22:53.952Z,2.83
2022-11-28T02:23:53.929Z,2.81
2022-11-28T02:24:54.417Z,2.84
2022-11-28T02:25:54.300Z,2.8
2022-11-28T02:26:54.122Z,2.83
2022-11-28T02:27:54.372Z,2.83
2022-11-28T02:28:54.347Z,2.77
2022-11-28T02:29:54.071Z,2.88
2022-11-28T02:30:54.777Z,2.9
2022-11-28T02:31:54.261Z,2.83
2022-11-28T02:32:54.276Z,2.93
2022-11-28T02:33:53.753Z,2.9
2022-11-28T02:34:55.226Z,2.76
2022-11-28T02:35:53.816Z,2.93
2022-11-28T02:36:54.203Z,2.9
2022-11-28T02:37:54.179Z,2.88
2022-11-28T02:38:53.906Z,2.88
2022-11-28T02:39:53.891Z,2.93
2022-11-28T02:40:53.617Z,2.9
2022-11-28T02:41:53.854Z,3.01
2022-11-28T02:42:53.832Z,3.01
2022-11-28T02:43:53.817Z,3.01
2022-11-28T02:44:53.802Z,2.98
2022-11-28T02:45:53.778Z,3.01
2022-11-28T02:46:55.236Z,2.96
2022-11-28T02:47:54.586Z,3.03
2022-11-28T02:48:54.827Z,2.96
2022-11-28T02:49:54.814Z,3.01
2022-11-28T02:50:54.791Z,3.06
2022-11-28T02:51:54.521Z,2.93
2022-11-28T02:52:54.751Z,2.99
2022-11-28T02:53:54.490Z,2.99
2022-11-28T02:54:54.720Z,3.03
2022-11-28T02:55:54.698Z,2.98
2022-11-28T02:56:54.683Z,2.96
2022-11-28T02:57:54.673Z,3.01
2022-11-28T02:58:54.652Z,2.96
2022-11-28T02:59:54.622Z,2.93
2022-11-28T03:00:54.747Z,2.96
2022-11-28T03:01:54.581Z,3.06
2022-11-28T03:02:54.938Z,2.99
2022-11-28T03:03:54.547Z,3.01
2022-11-28T03:04:54.280Z,2.98
2022-11-28T03:05:54.506Z,2.93
2022-11-28T03:06:54.545Z,3.01
2022-11-28T03:07:54.664Z,2.99
2022-11-28T03:08:54.460Z,3.01
2022-11-28T03:09:54.187Z,3.01
2022-11-28T03:10:54.171Z,2.87
2022-11-28T03:11:54.408Z,2.96
2022-11-28T03:12:54.139Z,2.91
2022-11-28T03:13:53.851Z,2.93
2022-11-28T03:14:54.349Z,2.87
2022-11-28T03:15:54.325Z,2.98
2022-11-28T03:16:54.329Z,3.02
2022-11-28T03:17:54.309Z,3.01
2022-11-28T03:18:54.685Z,2.96
2022-11-28T03:19:54.256Z,2.95
2022-11-28T03:20:53.984Z,2.96
2022-11-28T03:21:53.973Z,2.96
2022-11-28T03:22:53.950Z,2.95
2022-11-28T03:23:54.200Z,3.06
2022-11-28T03:24:53.913Z,2.99
2022-11-28T03:25:53.896Z,3.01
2022-11-28T03:26:53.624Z,2.98
2022-11-28T03:27:54.106Z,3.05
2022-11-28T03:28:53.851Z,3.05
2022-11-28T03:29:54.079Z,3.02
2022-11-28T03:30:53.559Z,3.03
2022-11-28T03:31:54.178Z,3.05
2022-11-28T03:32:54.016Z,3.03
2022-11-28T03:49:50.401Z,3.06
2022-11-28T03:50:49.765Z,3.13
2022-11-28T03:51:49.483Z,3.11
2022-11-28T03:52:49.714Z,3.06
2022-11-28T03:53:49.957Z,3.03
2022-11-28T03:54:49.832Z,3.03
2022-11-28T03:55:50.257Z,2.96
2022-11-28T03:56:49.884Z,3.05
2022-11-28T03:57:49.622Z,2.91
2022-11-28T03:58:49.935Z,2.93
2022-11-28T03:59:49.574Z,3.06
2022-11-28T04:00:49.704Z,3.03
2022-11-28T04:01:49.287Z,2.96
2022-11-28T04:02:49.441Z,2.98
2022-11-28T04:03:49.758Z,3.03
2022-11-28T04:04:50.108Z,2.95
2022-11-28T04:05:50.080Z,3.02
2022-11-28T04:06:49.702Z,2.9
2022-11-28T04:07:49.706Z,2.96
2022-11-28T04:08:49.150Z,2.87
2022-11-28T04:09:49.636Z,2.98
2022-11-28T04:10:49.374Z,2.96
2022-11-28T04:11:49.612Z,3.01
2022-11-28T04:12:49.329Z,2.93
2022-11-28T04:13:49.327Z,3.02
2022-11-28T04:14:49.382Z,2.93
2022-11-28T04:15:49.287Z,2.91
2022-11-28T04:16:56.149Z,2.9
2022-11-28T04:17:49.251Z,2.96
2022-11-28T04:18:49.477Z,2.96
2022-11-28T04:19:49.202Z,3.03
2022-11-28T04:20:49.190Z,2.96
2022-11-28T04:21:49.794Z,3.03
2022-11-28T04:22:49.176Z,2.96
2022-11-28T04:23:49.415Z,2.9
2022-11-28T04:24:49.773Z,3.02
2022-11-28T04:25:49.104Z,2.99
2022-11-28T04:26:48.821Z,3.08
2022-11-28T04:27:49.051Z,3.05
2022-11-28T04:28:49.032Z,2.96
2022-11-28T04:29:49.294Z,2.95
2022-11-28T04:30:49.005Z,3.01
2022-11-28T04:31:49.181Z,3.09
2022-11-28T04:32:48.964Z,3.11
2022-11-28T04:33:49.206Z,3.11
2022-11-28T04:34:49.754Z,3.06
2022-11-28T04:35:48.906Z,3.13
2022-11-28T04:36:49.140Z,3.06
2022-11-28T04:37:49.492Z,3.11
2022-11-28T04:38:48.857Z,3.13
2022-11-28T04:39:49.093Z,3.16
2022-11-28T04:40:48.812Z,3.09
2022-11-28T04:41:49.050Z,3.14
2022-11-28T04:42:55.510Z,3.19
2022-11-28T04:43:48.765Z,3.11
2022-11-28T04:44:50.196Z,3.05
2022-11-28T04:45:49.901Z,3.11
2022-11-28T04:46:49.608Z,3.14
2022-11-28T04:47:49.579Z,3.14
2022-11-28T04:48:49.813Z,3.17
2022-11-28T04:49:49.533Z,3.13
2022-11-28T04:50:49.524Z,3.17
2022-11-28T04:51:49.500Z,3.2
2022-11-28T04:52:49.737Z,3.17
2022-11-28T04:53:50.068Z,3.17
2022-11-28T04:54:49.783Z,3.19
2022-11-28T04:55:49.681Z,3.16
2022-11-28T04:56:49.665Z,3.24
2022-11-28T04:57:52.933Z,3.21
2022-11-28T04:58:49.380Z,3.2
2022-11-28T04:59:49.606Z,3.23
2022-11-28T05:00:49.858Z,3.23
2022-11-28T05:01:49.659Z,3.23
2022-11-28T05:02:49.043Z,3.21
2022-11-28T05:03:49.283Z,3.26
2022-11-28T05:04:50.401Z,3.2
2022-11-28T05:05:50.113Z,3.21
2022-11-28T05:06:50.368Z,3.19
2022-11-28T05:07:50.180Z,3.26
2022-11-28T05:08:50.038Z,3.2
2022-11-28T05:09:50.640Z,3.21
2022-11-28T05:10:49.752Z,3.17
2022-11-28T05:11:50.245Z,3.3
2022-11-28T05:12:50.220Z,3.17
2022-11-28T05:13:49.946Z,3.35
2022-11-28T05:14:49.930Z,3.32
2022-11-28T05:15:50.165Z,3.39
2022-11-28T05:16:50.248Z,3.39
2022-11-28T05:17:49.997Z,3.35
2022-11-28T05:18:50.123Z,3.45
2022-11-28T05:19:50.094Z,3.46
2022-11-28T05:20:49.848Z,3.39
2022-11-28T05:21:50.066Z,3.43
2022-11-28T05:22:50.206Z,3.42
2022-11-28T05:23:49.773Z,3.43
2022-11-28T05:24:50.458Z,3.39
2022-11-28T05:25:50.330Z,3.43
2022-11-28T05:26:49.723Z,3.42
2022-11-28T05:27:49.958Z,3.43
2022-11-28T05:28:49.691Z,3.39
2022-11-28T05:29:56.708Z,3.46
2022-11-28T05:30:49.392Z,3.32
2022-11-28T05:31:49.918Z,3.32
2022-11-28T05:32:49.356Z,3.34
2022-11-28T05:33:49.606Z,3.32
2022-11-28T05:34:49.634Z,3.34
2022-11-28T05:35:49.831Z,3.27
2022-11-28T05:36:49.793Z,3.2
2022-11-28T05:37:49.315Z,3.35
2022-11-28T05:38:49.493Z,3.29
2022-11-28T05:39:49.937Z,3.32
2022-11-28T05:40:49.733Z,3.34
2022-11-28T05:41:50.062Z,3.37
2022-11-28T05:42:49.675Z,3.46
2022-11-28T05:43:49.670Z,3.39
2022-11-28T05:44:49.391Z,3.34
2022-11-28T05:45:49.959Z,3.4
2022-11-28T05:46:49.093Z,3.35
2022-11-28T05:47:49.352Z,3.43
2022-11-28T05:48:49.326Z,3.46
2022-11-28T05:49:50.060Z,3.4
2022-11-28T05:50:49.026Z,3.42
2022-11-28T05:51:49.516Z,3.46
2022-11-28T05:52:49.248Z,3.48
2022-11-28T05:53:49.506Z,3.35
2022-11-28T05:54:49.217Z,3.42
2022-11-28T05:55:49.454Z,3.46
2022-11-28T05:56:49.174Z,3.45
2022-11-28T05:57:49.789Z,3.43
2022-11-28T05:58:49.150Z,3.51
2022-11-28T05:59:49.807Z,3.49
2022-11-28T06:00:49.095Z,3.46
2022-11-28T06:01:49.223Z,3.48
2022-11-28T06:02:49.069Z,3.45
2022-11-28T06:03:49.050Z,3.45
2022-11-28T06:04:49.323Z,3.48
2022-11-28T06:05:49.105Z,3.45
2022-11-28T06:06:48.749Z,3.4
2022-11-28T06:07:49.174Z,3.46
2022-11-28T06:08:48.971Z,3.49
2022-11-28T06:09:49.228Z,3.43
2022-11-28T06:10:49.172Z,3.46
2022-11-28T06:11:49.169Z,3.46
2022-11-28T06:12:49.148Z,3.43
2022-11-28T06:13:49.485Z,3.48
2022-11-28T06:14:49.101Z,3.42
2022-11-28T06:15:49.109Z,3.49
2022-11-28T06:16:49.240Z,3.43
2022-11-28T06:17:49.060Z,3.46
2022-11-28T06:18:49.196Z,3.45
2022-11-28T06:19:49.293Z,3.43
2022-11-28T06:20:49.005Z,3.45
2022-11-28T06:21:48.723Z,3.43
2022-11-28T06:22:48.969Z,3.4
2022-11-28T06:23:48.445Z,3.49
2022-11-28T06:24:48.680Z,3.48
2022-11-28T06:25:48.668Z,3.49
2022-11-28T06:26:48.639Z,3.42
2022-11-28T06:27:48.618Z,3.46
2022-11-28T06:28:48.613Z,3.43
2022-11-28T06:29:49.625Z,3.46
2022-11-28T06:30:48.826Z,3.45
2022-11-28T06:31:49.012Z,3.35
2022-11-28T06:32:48.795Z,3.42
2022-11-28T06:33:48.520Z,3.54
2022-11-28T06:34:48.498Z,3.43
2022-11-28T06:35:48.471Z,3.53
2022-11-28T06:36:48.716Z,3.45
2022-11-28T06:37:48.704Z,3.48
2022-11-28T06:38:48.690Z,3.48
2022-11-28T06:39:48.836Z,3.53
2022-11-28T06:40:48.388Z,3.39
2022-11-28T06:41:48.380Z,3.51
2022-11-28T06:42:48.616Z,3.54
2022-11-28T06:43:48.589Z,3.54
2022-11-28T06:44:48.331Z,3.58
2022-11-28T06:45:49.006Z,3.46
2022-11-28T06:46:48.545Z,3.53
2022-11-28T06:47:48.302Z,3.46
2022-11-28T06:48:47.996Z,3.56
2022-11-28T06:49:48.793Z,3.49
2022-11-28T06:50:48.218Z,3.51
2022-11-28T06:51:48.194Z,3.58
2022-11-28T06:52:47.927Z,3.46
2022-11-28T06:53:48.407Z,3.49
2022-11-28T06:54:47.886Z,3.56
2022-11-28T06:55:48.139Z,3.67
2022-11-28T06:56:48.359Z,3.63
2022-11-28T06:57:48.462Z,3.6
2022-11-28T06:58:48.353Z,3.58
2022-11-28T06:59:48.294Z,3.58
2022-11-28T07:00:48.217Z,3.71
2022-11-28T07:01:48.980Z,3.69
2022-11-28T07:02:48.323Z,3.75
2022-11-28T07:03:47.975Z,3.75
2022-11-28T07:04:47.707Z,3.67
2022-11-28T07:05:48.204Z,3.76
2022-11-28T07:06:47.673Z,3.74
2022-11-28T07:07:59.011Z,3.79
2022-11-28T07:08:47.884Z,3.82
2022-11-28T07:09:48.578Z,3.86
2022-11-28T07:10:48.110Z,3.81
2022-11-28T07:11:48.100Z,3.86
2022-11-28T07:12:47.575Z,3.85
2022-11-28T07:13:48.066Z,3.96
2022-11-28T07:14:47.782Z,3.84
2022-11-28T07:15:48.028Z,4.02
2022-11-28T07:16:47.954Z,3.96
2022-11-28T07:17:48.251Z,3.93
2022-11-28T07:18:47.714Z,3.93
2022-11-28T07:19:55.192Z,4.03
2022-11-28T07:20:47.690Z,4.02
2022-11-28T07:21:47.668Z,4.04
2022-11-28T07:22:47.902Z,3.93
2022-11-28T07:23:47.643Z,3.96
2022-11-28T07:24:47.615Z,4.04
2022-11-28T07:25:47.844Z,4.11
2022-11-28T07:26:47.576Z,4.15
2022-11-28T07:27:47.558Z,4.07
2022-11-28T07:28:47.551Z,4.18
2022-11-28T07:29:47.774Z,4.08
2022-11-28T07:30:47.502Z,4.18
2022-11-28T07:31:48.081Z,4.18
2022-11-28T07:32:47.760Z,4.15
2022-11-28T07:33:47.975Z,4.18
2022-11-28T07:34:52.785Z,4.18
2022-11-28T07:35:47.670Z,4.28
2022-11-28T07:36:47.661Z,4.21
2022-11-28T07:37:47.646Z,4.2
2022-11-28T07:38:47.618Z,4.15
2022-11-28T07:39:47.773Z,4.18
2022-11-28T07:40:47.593Z,4.22
2022-11-28T07:41:47.327Z,4.2
2022-11-28T07:42:47.304Z,4.17
2022-11-28T07:43:47.545Z,4.22
2022-11-28T07:44:47.259Z,4.12
2022-11-28T07:46:05.263Z,4.2
2022-11-28T07:46:47.790Z,4.21
2022-11-28T07:47:47.476Z,4.18
2022-11-28T07:48:47.454Z,4.17
2022-11-28T07:49:47.854Z,4.17
2022-11-28T07:50:47.420Z,4.17
2022-11-28T07:51:47.414Z,4.2
2022-11-28T07:52:47.393Z,4.14
2022-11-28T07:53:47.426Z,4.18
2022-11-28T07:54:47.088Z,4.11
2022-11-28T07:55:47.333Z,4.21
2022-11-28T07:57:16.963Z,4.17
2022-11-28T07:57:47.527Z,4.2
2022-11-28T07:58:47.110Z,4.15
2022-11-28T07:59:47.859Z,4.17
2022-11-28T08:00:47.594Z,4.17
2022-11-28T08:01:47.035Z,4.18
2022-11-28T08:02:47.099Z,4.17
2022-11-28T08:03:46.968Z,4.12
2022-11-28T08:04:57.886Z,4.17
2022-11-28T08:05:47.184Z,4.17
2022-11-28T08:06:46.884Z,4.14
2022-11-28T08:07:47.022Z,4.21
2022-11-28T08:08:46.594Z,4.17
2022-11-28T08:09:47.419Z,4.12
2022-11-28T08:10:46.818Z,4.11
2022-11-28T08:11:47.070Z,4.15
2022-11-28T08:12:46.781Z,4.17
2022-11-28T08:13:47.028Z,4.21
2022-11-28T08:14:47.715Z,4.14
2022-11-28T08:15:46.723Z,4.18
2022-11-28T08:16:47.327Z,4.2
2022-11-28T08:17:46.953Z,4.26
2022-11-28T08:18:46.933Z,4.24
2022-11-28T08:19:46.903Z,4.3
2022-11-28T08:20:46.958Z,4.39
2022-11-28T08:21:46.898Z,4.36
2022-11-28T08:22:46.346Z,4.38
2022-11-28T08:23:46.583Z,4.3
2022-11-28T08:24:47.497Z,4.3
2022-11-28T08:25:46.799Z,4.28
2022-11-28T08:26:46.541Z,4.36
2022-11-28T08:27:46.516Z,4.4
2022-11-28T08:28:46.751Z,4.36
2022-11-28T08:29:53.855Z,4.42
2022-11-28T08:30:46.643Z,4.44
2022-11-28T08:31:46.705Z,4.53
2022-11-28T08:32:46.428Z,4.53
2022-11-28T08:33:46.430Z,4.48
2022-11-28T08:34:46.393Z,4.51
2022-11-28T08:35:46.631Z,4.56
2022-11-28T08:36:46.667Z,4.65
2022-11-28T08:37:46.623Z,4.65
2022-11-28T08:39:46.993Z,4.66
2022-11-28T08:40:46.041Z,4.6
2022-11-28T08:41:46.553Z,4.64
2022-11-28T08:42:46.514Z,4.64
2022-11-28T08:43:46.491Z,4.64
2022-11-28T08:44:46.473Z,4.57
2022-11-28T08:45:46.632Z,4.61
2022-11-28T08:46:46.468Z,4.64
2022-11-28T08:47:46.420Z,4.57
2022-11-28T08:48:46.414Z,4.58
2022-11-28T08:49:47.397Z,4.61
2022-11-28T08:50:51.289Z,4.48
2022-11-28T08:51:45.844Z,4.57
2022-11-28T08:52:46.386Z,4.46
2022-11-28T08:53:56.474Z,4.54
2022-11-28T08:54:47.142Z,4.51
2022-11-28T08:55:46.836Z,4.46
2022-11-28T08:56:46.012Z,4.65
2022-11-28T08:57:45.751Z,4.53
2022-11-28T08:58:45.730Z,4.48
2022-11-28T08:59:46.804Z,4.57
2022-11-28T09:00:46.205Z,4.53
2022-11-28T09:01:46.146Z,4.54
2022-11-28T09:02:45.922Z,4.46
2022-11-28T09:03:46.397Z,4.61
2022-11-28T09:04:46.132Z,4.48
2022-11-28T09:05:46.127Z,4.5
2022-11-28T09:06:46.112Z,4.64
2022-11-28T09:07:46.269Z,4.57
2022-11-28T09:08:46.125Z,4.53
2022-11-28T09:09:46.659Z,4.66
2022-11-28T09:10:45.780Z,4.65
2022-11-28T09:11:46.026Z,4.61
2022-11-28T09:12:45.742Z,4.66
2022-11-28T09:13:45.735Z,4.61
2022-11-28T09:14:45.719Z,4.61
2022-11-28T09:15:47.390Z,4.66
2022-11-28T09:16:45.958Z,4.69
2022-11-28T09:17:45.930Z,4.69
2022-11-28T09:18:45.899Z,4.69
2022-11-28T09:19:46.550Z,4.72
2022-11-28T09:20:45.858Z,4.83
2022-11-28T09:21:45.847Z,4.75
2022-11-28T09:22:45.834Z,4.76
2022-11-28T09:23:45.742Z,4.69
2022-11-28T09:24:45.837Z,4.75
2022-11-28T09:25:45.803Z,4.9
2022-11-28T09:26:45.511Z,4.88
2022-11-28T09:27:45.229Z,4.88
2022-11-28T09:28:45.723Z,4.95
2022-11-28T09:29:46.339Z,4.91
2022-11-28T09:30:45.375Z,4.85
2022-11-28T09:31:51.490Z,4.91
2022-11-28T09:32:45.402Z,4.85
2022-11-28T09:33:45.652Z,4.69
2022-11-28T09:34:45.125Z,4.69
2022-11-28T09:35:45.363Z,4.69
2022-11-28T09:36:45.600Z,4.69
2022-11-28T09:37:45.576Z,4.69
2022-11-28T09:38:45.562Z,4.6
2022-11-28T09:40:17.067Z,4.66
2022-11-28T09:40:45.266Z,4.61
2022-11-28T09:41:45.528Z,4.66
2022-11-28T09:42:45.485Z,4.74
2022-11-28T09:43:45.476Z,4.71
2022-11-28T09:44:45.197Z,4.65
2022-11-28T09:45:45.326Z,4.65
2022-11-28T09:46:45.470Z,4.68
2022-11-28T09:47:45.201Z,4.71
2022-11-28T09:48:45.245Z,4.71
2022-11-28T09:49:47.023Z,4.64
2022-11-28T09:50:45.108Z,4.65
2022-11-28T09:51:45.085Z,4.72
2022-11-28T09:52:45.696Z,4.75
2022-11-28T09:53:45.050Z,4.79
2022-11-28T09:54:45.029Z,4.74
2022-11-28T09:55:45.110Z,4.78
2022-11-28T09:56:45.256Z,4.74
2022-11-28T09:57:45.015Z,4.84
2022-11-28T09:58:44.714Z,4.74
2022-11-28T09:59:45.881Z,4.79
2022-11-28T10:00:44.694Z,4.74
2022-11-28T10:01:44.656Z,4.85
2022-11-28T10:02:45.156Z,4.83
2022-11-28T10:03:45.075Z,4.76
2022-11-28T10:04:44.905Z,4.69
2022-11-28T10:05:44.843Z,4.72
2022-11-28T10:06:45.128Z,4.76
2022-11-28T10:07:45.252Z,4.87
2022-11-28T10:08:45.055Z,4.84
2022-11-28T10:09:46.048Z,4.95
2022-11-28T10:10:45.006Z,4.98
2022-11-28T10:11:45.051Z,4.92
2022-11-28T10:12:45.027Z,4.91
2022-11-28T10:14:11.195Z,4.98
2022-11-28T10:14:44.693Z,4.92
2022-11-28T10:15:44.422Z,4.98
2022-11-28T10:16:44.917Z,4.98
2022-11-28T10:17:44.995Z,5
2022-11-28T10:18:44.627Z,4.97
2022-11-28T10:19:59.797Z,5
2022-11-28T10:20:44.594Z,5.06
2022-11-28T10:21:44.824Z,5.06
2022-11-28T10:22:44.916Z,4.95
2022-11-28T10:23:44.553Z,5.1
2022-11-28T10:24:44.774Z,5.09
2022-11-28T10:25:44.755Z,5.09
2022-11-28T10:26:44.777Z,5.05
2022-11-28T10:27:44.527Z,5.02
2022-11-28T10:28:44.465Z,5.1
2022-11-28T10:29:45.592Z,5.1
2022-11-28T10:30:44.870Z,5.05
2022-11-28T10:31:44.415Z,5.08
2022-11-28T10:32:44.509Z,4.91
2022-11-28T10:33:44.377Z,4.92
2022-11-28T10:34:44.107Z,4.98
2022-11-28T10:35:44.086Z,4.95
2022-11-28T10:36:44.331Z,5.09
2022-11-28T10:37:44.669Z,5.03
2022-11-28T10:38:44.291Z,5.09
2022-11-28T10:39:45.146Z,5.13
2022-11-28T10:40:44.512Z,5.13
2022-11-28T10:41:44.236Z,5.13
2022-11-28T10:42:44.226Z,5.15
2022-11-28T10:43:44.253Z,5.18
2022-11-28T10:44:44.446Z,5.23
2022-11-28T10:45:44.640Z,5.15
2022-11-28T10:46:44.787Z,5.2
2022-11-28T10:47:44.398Z,5.24
2022-11-28T10:48:45.749Z,5.21
2022-11-28T10:49:45.310Z,5.33
2022-11-28T10:50:44.348Z,5.28
2022-11-28T10:51:44.333Z,5.34
2022-11-28T10:52:44.321Z,5.33
2022-11-28T10:53:44.295Z,5.24
2022-11-28T10:54:44.291Z,5.27
2022-11-28T10:55:44.266Z,5.24
2022-11-28T10:56:43.983Z,5.27
2022-11-28T10:57:43.719Z,5.21
2022-11-28T10:58:43.955Z,5.27
2022-11-28T10:59:45.181Z,5.26
2022-11-28T11:00:44.181Z,5.2
2022-11-28T11:01:50.403Z,5.28
2022-11-28T11:02:43.889Z,5.3
2022-11-28T11:03:43.887Z,5.21
2022-11-28T11:04:44.256Z,5.24
2022-11-28T11:05:43.840Z,5.2
2022-11-28T11:07:13.780Z,5.2
2022-11-28T11:07:44.024Z,5.23
2022-11-28T11:08:44.053Z,5.15
2022-11-28T11:09:45.043Z,5.18
2022-11-28T11:10:44.013Z,5.21
2022-11-28T11:11:44.014Z,5.18
2022-11-28T11:12:43.721Z,5.16
2022-11-28T11:13:43.713Z,5.15
2022-11-28T11:14:43.955Z,5.18
2022-11-28T11:15:44.195Z,5.08
2022-11-28T11:16:44.101Z,4.92
2022-11-28T11:17:43.925Z,5.02
2022-11-28T11:18:43.879Z,4.91
2022-11-28T11:19:44.647Z,4.87
2022-11-28T11:20:43.341Z,4.85
2022-11-28T11:21:43.329Z,4.72
2022-11-28T11:22:46.105Z,4.68
2022-11-28T11:23:43.294Z,4.57
2022-11-28T11:24:43.526Z,4.64
2022-11-28T11:25:43.507Z,4.54
2022-11-28T11:26:43.590Z,4.47
2022-11-28T11:27:43.480Z,4.51
2022-11-28T11:28:43.464Z,4.53
2022-11-28T11:29:45.257Z,4.57
2022-11-28T11:30:44.045Z,4.5
2022-11-28T11:31:43.782Z,4.56
2022-11-28T11:32:46.305Z,4.5
2022-11-28T11:33:43.655Z,4.51
2022-11-28T11:34:43.353Z,4.6
2022-11-28T11:35:43.344Z,4.57
2022-11-28T11:36:43.719Z,4.57
2022-11-28T11:37:43.579Z,4.5
2022-11-28T11:38:43.303Z,4.56
2022-11-28T11:39:44.262Z,4.61
2022-11-28T11:40:43.263Z,4.6
2022-11-28T11:41:43.484Z,4.64
2022-11-28T11:42:43.473Z,4.65
2022-11-28T11:43:42.954Z,4.64
2022-11-28T11:44:43.199Z,4.58
2022-11-28T11:45:45.209Z,4.6
2022-11-28T11:46:43.738Z,4.6
2022-11-28T11:47:43.184Z,4.65
2022-11-28T11:48:43.377Z,4.65
2022-11-28T11:49:44.342Z,4.69
2022-11-28T11:50:43.086Z,4.74
2022-11-28T11:51:43.969Z,4.71
2022-11-28T11:52:43.309Z,4.71
2022-11-28T11:53:42.780Z,4.66
2022-11-28T11:54:43.014Z,4.69
2022-11-28T11:55:42.746Z,4.6
2022-11-28T11:56:43.283Z,4.6
2022-11-28T11:57:43.212Z,4.5
2022-11-28T11:58:43.193Z,4.57
2022-11-28T11:59:43.690Z,4.53
2022-11-28T12:00:43.177Z,4.48
2022-11-28T12:01:42.895Z,4.61
2022-11-28T12:02:43.371Z,4.6
2022-11-28T12:03:43.733Z,4.6
2022-11-28T12:04:57.195Z,4.64
2022-11-28T12:06:17.774Z,4.6
2022-11-28T12:06:43.067Z,4.6
2022-11-28T12:07:43.084Z,4.64
2022-11-28T12:08:43.042Z,4.6
2022-11-28T12:09:43.241Z,4.65
2022-11-28T12:10:42.749Z,4.69
2022-11-28T12:11:50.019Z,4.69
2022-11-28T12:12:42.725Z,4.65
2022-11-28T12:13:42.957Z,4.68
2022-11-28T12:14:43.110Z,4.75
2022-11-28T12:15:42.926Z,4.68
2022-11-28T12:16:43.227Z,4.69
2022-11-28T12:29:31.161Z,4.97
2022-11-28T12:30:30.555Z,4.97
2022-11-28T12:31:30.989Z,4.97
2022-11-28T12:32:31.031Z,5.06
2022-11-28T12:33:30.776Z,5.1
2022-11-28T12:34:30.742Z,5.1
2022-11-28T12:35:30.989Z,5.15
2022-11-28T12:36:30.449Z,5.09
2022-11-28T12:38:11.998Z,5.1
2022-11-28T12:38:30.677Z,5.15
2022-11-28T12:39:30.656Z,5.06
2022-11-28T12:40:30.654Z,5
2022-11-28T12:41:36.724Z,5.03
2022-11-28T12:42:30.626Z,5.02
2022-11-28T12:43:30.593Z,4.97
2022-11-28T12:44:30.603Z,4.95
2022-11-28T12:45:31.000Z,4.9
2022-11-28T12:46:30.864Z,4.95
2022-11-28T12:47:30.518Z,4.95
2022-11-28T12:48:30.509Z,4.94
2022-11-28T12:49:30.755Z,4.88
2022-11-28T12:50:30.483Z,4.92
2022-11-28T12:51:30.716Z,4.92
2022-11-28T12:52:30.258Z,4.85
2022-11-28T12:53:30.436Z,4.87
2022-11-28T12:54:30.585Z,4.85
2022-11-28T12:55:30.642Z,4.94
2022-11-28T12:56:30.647Z,4.87
2022-11-28T12:57:31.012Z,5
2022-11-28T12:58:30.965Z,4.94
2022-11-28T12:59:30.951Z,4.94
2022-11-28T13:00:30.959Z,4.97
2022-11-28T13:01:31.482Z,5.05
2022-11-28T13:02:31.690Z,5.15
2022-11-28T13:03:31.343Z,5.08
2022-11-28T13:04:31.130Z,5.09
2022-11-28T13:05:30.610Z,5.05
2022-11-28T13:06:31.090Z,4.91
2022-11-28T13:07:31.244Z,4.83
2022-11-28T13:08:31.059Z,4.91
2022-11-28T13:09:30.784Z,4.75
2022-11-28T13:10:31.032Z,4.69
2022-11-28T13:11:30.499Z,4.68
2022-11-28T13:12:30.986Z,4.6
2022-11-28T13:13:30.714Z,4.53
2022-11-28T13:14:30.956Z,4.53
2022-11-28T13:15:30.425Z,4.51
2022-11-28T13:16:32.527Z,4.54
2022-11-28T13:17:31.385Z,4.47
2022-11-28T13:18:31.321Z,4.44
2022-11-28T13:19:31.065Z,4.46
2022-11-28T13:20:31.066Z,4.35
2022-11-28T13:21:31.037Z,4.35
2022-11-28T13:22:31.293Z,4.29
2022-11-28T13:23:31.241Z,4.39
2022-11-28T13:24:30.984Z,4.35
2022-11-28T13:25:30.974Z,4.32
2022-11-28T13:26:31.205Z,4.3
2022-11-28T13:27:30.933Z,4.33
2022-11-28T13:28:31.148Z,4.26
2022-11-28T13:29:31.161Z,4.3
2022-11-28T13:30:31.128Z,4.36
2022-11-28T13:31:31.249Z,4.3
2022-11-28T13:32:30.848Z,4.22
2022-11-28T13:33:31.133Z,4.32
2022-11-28T13:34:30.543Z,4.29
2022-11-28T13:35:30.785Z,4.29
2022-11-28T13:39:14.088Z,4.29
2022-11-28T13:39:42.244Z,4.38
2022-11-28T13:40:43.745Z,4.36
2022-11-28T13:43:02.807Z,4.42
2022-11-28T13:43:15.999Z,4.48
2022-11-28T13:44:15.980Z,4.39
2022-11-28T13:45:15.699Z,4.44
2022-11-28T13:46:15.627Z,4.36
2022-11-28T13:47:15.926Z,4.47
2022-11-28T13:48:15.684Z,4.4
2022-11-28T13:49:23.951Z,4.39
2022-11-28T13:50:15.612Z,4.38
2022-11-28T13:51:32.432Z,4.38
2022-11-28T13:52:15.824Z,4.33
2022-11-28T13:53:17.431Z,4.3
2022-11-28T13:54:17.894Z,4.36